KAUW/AUW METAR and TAF weather

Enter ICAO airport designator
Station Type Date Time Source
KAUW METAR 2020/04/09 19:54 UTC NOAA

KAUW 091954Z AUTO 31019G28KT 10SM FEW055 BKN070 04/M09 A2971 RMK AO2 PK WND 32029/1942 SNE08B26E35 SLP075 P0000 T00441094


Station Type Date Time Source
KAUW Decoded METAR 2020/04/09 19:54 UTC NOAA

WAUSAU DOWNTOWN AIRPORT, WI, United States (KAUW) 44-56N 089-37W 362M
Apr 09, 2020 - 03:54 PM EDT / 2020.04.09 1954 UTC
Wind: from the NW (310 degrees) at 22 MPH (19 KT) gusting to 32 MPH (28 KT):0
Visibility: 10 mile(s):0
Sky conditions: mostly cloudy
Precipitation last hour: A trace
Temperature: 39.9 F (4.4 C)
Dew Point: 15.1 F (-9.4 C)
Relative Humidity: 35%
Pressure (altimeter): 29.71 in. Hg (1006 hPa)
ob: KAUW 091954Z AUTO 31019G28KT 10SM FEW055 BKN070 04/M09 A2971 RMK AO2 PK WND 32029/1942 SNE08B26E35 SLP075 P0000 T00441094
cycle: 20

Station Type Date Time Source
KAUW TAF 2020/04/09 18:40 UTC NOAA

TAF KAUW 091738Z 0918/1018 32015G26KT P6SM SCT018 BKN030
TEMPO 0918/0920 1/2SM SHSN BKN018
FM092000 32015G24KT P6SM SCT018 BKN035
TEMPO 0920/0922 1SM -SHSN BKN018
FM100200 32011G20KT P6SM BKN040 WS020/33040KT
FM100600 31009G16KT P6SM SCT045
FM100900 31009KT P6SM SCT040
FM101400 31009G15KT P6SM SCT040

Example: see airport list